sensor_id;sensor_type;location;lat;lon;timestamp;P1;durP1;ratioP1;P2;durP2;ratioP2
11907;SDS011;6014;47.690;9.130;2022-10-28T00:01:29;12.02;;;3.65;;
11907;SDS011;6014;47.690;9.130;2022-10-28T00:03:58;10.98;;;3.63;;
11907;SDS011;6014;47.690;9.130;2022-10-28T00:06:29;8.82;;;3.78;;
11907;SDS011;6014;47.690;9.130;2022-10-28T00:09:01;28.00;;;6.35;;
11907;SDS011;6014;47.690;9.130;2022-10-28T00:11:36;23.35;;;4.38;;
11907;SDS011;6014;47.690;9.130;2022-10-28T00:14:05;17.65;;;4.60;;
11907;SDS011;6014;47.690;9.130;2022-10-28T00:19:09;19.33;;;4.75;;
11907;SDS011;6014;47.690;9.130;2022-10-28T00:24:17;13.55;;;4.63;;
11907;SDS011;6014;47.690;9.130;2022-10-28T00:26:45;22.15;;;4.35;;
11907;SDS011;6014;47.690;9.130;2022-10-28T00:29:14;31.08;;;4.80;;
11907;SDS011;6014;47.690;9.130;2022-10-28T00:31:46;33.40;;;5.47;;
11907;SDS011;6014;47.690;9.130;2022-10-28T00:34:15;25.48;;;5.22;;
11907;SDS011;6014;47.690;9.130;2022-10-28T00:36:46;33.50;;;5.00;;
11907;SDS011;6014;47.690;9.130;2022-10-28T00:39:16;24.15;;;4.80;;
11907;SDS011;6014;47.690;9.130;2022-10-28T00:41:53;18.45;;;5.30;;
11907;SDS011;6014;47.690;9.130;2022-10-28T00:50:21;12.75;;;4.60;;
11907;SDS011;6014;47.690;9.130;2022-10-28T00:53:09;8.88;;;4.97;;
11907;SDS011;6014;47.690;9.130;2022-10-28T00:55:41;31.40;;;6.25;;
11907;SDS011;6014;47.690;9.130;2022-10-28T00:58:10;38.20;;;5.97;;
11907;SDS011;6014;47.690;9.130;2022-10-28T01:00:39;21.38;;;5.78;;
11907;SDS011;6014;47.690;9.130;2022-10-28T01:03:09;19.95;;;5.65;;
11907;SDS011;6014;47.690;9.130;2022-10-28T01:05:39;58.53;;;7.10;;
11907;SDS011;6014;47.690;9.130;2022-10-28T01:08:09;20.33;;;5.60;;
11907;SDS011;6014;47.690;9.130;2022-10-28T01:10:53;29.75;;;5.88;;
11907;SDS011;6014;47.690;9.130;2022-10-28T01:14:16;49.92;;;6.60;;
11907;SDS011;6014;47.690;9.130;2022-10-28T01:17:03;22.30;;;5.38;;
11907;SDS011;6014;47.690;9.130;2022-10-28T01:20:17;30.00;;;5.25;;
11907;SDS011;6014;47.690;9.130;2022-10-28T01:23:10;28.00;;;5.38;;
11907;SDS011;6014;47.690;9.130;2022-10-28T01:25:59;29.48;;;5.75;;
11907;SDS011;6014;47.690;9.130;2022-10-28T01:29:16;32.88;;;5.93;;
11907;SDS011;6014;47.690;9.130;2022-10-28T01:34:48;22.10;;;4.90;;
11907;SDS011;6014;47.690;9.130;2022-10-28T01:37:31;21.75;;;5.03;;
11907;SDS011;6014;47.690;9.130;2022-10-28T01:40:05;45.80;;;5.82;;
11907;SDS011;6014;47.690;9.130;2022-10-28T01:42:52;46.55;;;5.75;;
11907;SDS011;6014;47.690;9.130;2022-10-28T01:45:29;34.08;;;4.82;;
11907;SDS011;6014;47.690;9.130;2022-10-28T01:48:11;18.30;;;4.45;;
11907;SDS011;6014;47.690;9.130;2022-10-28T01:50:44;33.58;;;5.35;;
11907;SDS011;6014;47.690;9.130;2022-10-28T01:56:00;31.70;;;4.82;;
11907;SDS011;6014;47.690;9.130;2022-10-28T01:58:34;84.10;;;7.68;;
11907;SDS011;6014;47.690;9.130;2022-10-28T02:01:05;29.33;;;5.65;;
11907;SDS011;6014;47.690;9.130;2022-10-28T02:03:38;50.03;;;5.53;;
11907;SDS011;6014;47.690;9.130;2022-10-28T02:06:10;39.20;;;5.22;;
11907;SDS011;6014;47.690;9.130;2022-10-28T02:08:53;40.05;;;5.38;;
11907;SDS011;6014;47.690;9.130;2022-10-28T02:11:35;29.52;;;5.40;;
11907;SDS011;6014;47.690;9.130;2022-10-28T02:14:29;46.80;;;5.88;;
11907;SDS011;6014;47.690;9.130;2022-10-28T02:17:14;31.73;;;5.68;;
11907;SDS011;6014;47.690;9.130;2022-10-28T02:19:57;36.22;;;4.55;;
11907;SDS011;6014;47.690;9.130;2022-10-28T02:22:39;95.63;;;6.97;;
11907;SDS011;6014;47.690;9.130;2022-10-28T02:25:16;34.22;;;4.55;;
11907;SDS011;6014;47.690;9.130;2022-10-28T02:30:26;20.08;;;5.15;;
11907;SDS011;6014;47.690;9.130;2022-10-28T02:33:16;43.28;;;5.30;;
11907;SDS011;6014;47.690;9.130;2022-10-28T02:35:51;86.10;;;7.30;;
11907;SDS011;6014;47.690;9.130;2022-10-28T02:38:33;20.85;;;5.50;;
11907;SDS011;6014;47.690;9.130;2022-10-28T02:41:07;15.13;;;5.10;;
11907;SDS011;6014;47.690;9.130;2022-10-28T02:43:40;47.15;;;7.00;;
11907;SDS011;6014;47.690;9.130;2022-10-28T02:46:26;20.65;;;4.75;;
11907;SDS011;6014;47.690;9.130;2022-10-28T02:48:59;21.15;;;4.70;;
11907;SDS011;6014;47.690;9.130;2022-10-28T02:51:33;15.52;;;4.80;;
11907;SDS011;6014;47.690;9.130;2022-10-28T02:54:13;23.20;;;5.65;;
11907;SDS011;6014;47.690;9.130;2022-10-28T02:56:46;16.15;;;5.10;;
11907;SDS011;6014;47.690;9.130;2022-10-28T02:59:18;38.97;;;5.47;;
11907;SDS011;6014;47.690;9.130;2022-10-28T03:01:47;46.58;;;6.25;;
11907;SDS011;6014;47.690;9.130;2022-10-28T03:04:15;70.50;;;7.78;;
11907;SDS011;6014;47.690;9.130;2022-10-28T03:06:45;41.08;;;6.30;;
11907;SDS011;6014;47.690;9.130;2022-10-28T03:09:14;109.97;;;7.25;;
11907;SDS011;6014;47.690;9.130;2022-10-28T03:11:53;42.53;;;5.90;;
11907;SDS011;6014;47.690;9.130;2022-10-28T03:14:22;62.17;;;7.35;;
11907;SDS011;6014;47.690;9.130;2022-10-28T03:16:51;44.75;;;6.18;;
11907;SDS011;6014;47.690;9.130;2022-10-28T03:19:19;41.47;;;5.10;;
11907;SDS011;6014;47.690;9.130;2022-10-28T03:21:50;38.17;;;5.95;;
11907;SDS011;6014;47.690;9.130;2022-10-28T03:24:24;46.90;;;6.75;;
11907;SDS011;6014;47.690;9.130;2022-10-28T03:26:52;24.67;;;5.03;;
11907;SDS011;6014;47.690;9.130;2022-10-28T03:29:21;36.05;;;5.65;;
11907;SDS011;6014;47.690;9.130;2022-10-28T03:31:56;40.53;;;5.30;;
11907;SDS011;6014;47.690;9.130;2022-10-28T03:34:24;93.38;;;9.55;;
11907;SDS011;6014;47.690;9.130;2022-10-28T03:37:02;55.25;;;6.78;;
11907;SDS011;6014;47.690;9.130;2022-10-28T03:39:30;54.70;;;6.25;;
11907;SDS011;6014;47.690;9.130;2022-10-28T03:41:59;65.88;;;6.47;;
11907;SDS011;6014;47.690;9.130;2022-10-28T03:44:27;87.40;;;7.47;;
11907;SDS011;6014;47.690;9.130;2022-10-28T03:46:56;63.65;;;6.55;;
11907;SDS011;6014;47.690;9.130;2022-10-28T03:49:24;133.38;;;7.60;;
11907;SDS011;6014;47.690;9.130;2022-10-28T03:51:52;92.88;;;6.80;;
11907;SDS011;6014;47.690;9.130;2022-10-28T03:54:25;75.70;;;6.97;;
11907;SDS011;6014;47.690;9.130;2022-10-28T03:56:54;59.78;;;5.45;;
11907;SDS011;6014;47.690;9.130;2022-10-28T03:59:22;22.23;;;5.50;;
11907;SDS011;6014;47.690;9.130;2022-10-28T04:01:51;69.03;;;7.70;;
11907;SDS011;6014;47.690;9.130;2022-10-28T04:04:19;93.22;;;7.18;;
11907;SDS011;6014;47.690;9.130;2022-10-28T04:06:53;44.50;;;4.43;;
11907;SDS011;6014;47.690;9.130;2022-10-28T04:09:21;15.65;;;3.97;;
11907;SDS011;6014;47.690;9.130;2022-10-28T04:11:51;44.88;;;4.10;;
11907;SDS011;6014;47.690;9.130;2022-10-28T04:14:20;45.78;;;4.50;;
11907;SDS011;6014;47.690;9.130;2022-10-28T04:16:49;56.75;;;5.38;;
11907;SDS011;6014;47.690;9.130;2022-10-28T04:19:23;94.35;;;7.13;;
11907;SDS011;6014;47.690;9.130;2022-10-28T04:21:52;27.42;;;5.85;;
11907;SDS011;6014;47.690;9.130;2022-10-28T04:24:21;24.15;;;3.65;;
11907;SDS011;6014;47.690;9.130;2022-10-28T04:26:52;36.42;;;4.53;;
11907;SDS011;6014;47.690;9.130;2022-10-28T04:29:21;60.35;;;5.03;;
11907;SDS011;6014;47.690;9.130;2022-10-28T04:31:50;34.30;;;4.85;;
11907;SDS011;6014;47.690;9.130;2022-10-28T04:34:19;18.75;;;3.92;;
11907;SDS011;6014;47.690;9.130;2022-10-28T04:36:48;13.95;;;3.40;;
11907;SDS011;6014;47.690;9.130;2022-10-28T04:39:20;18.85;;;3.50;;
11907;SDS011;6014;47.690;9.130;2022-10-28T04:41:49;22.38;;;4.00;;
11907;SDS011;6014;47.690;9.130;2022-10-28T04:44:19;7.75;;;3.17;;
11907;SDS011;6014;47.690;9.130;2022-10-28T04:46:47;6.85;;;3.42;;
11907;SDS011;6014;47.690;9.130;2022-10-28T04:49:16;6.95;;;3.50;;
11907;SDS011;6014;47.690;9.130;2022-10-28T04:51:44;7.47;;;3.28;;
11907;SDS011;6014;47.690;9.130;2022-10-28T04:54:18;6.47;;;4.38;;
11907;SDS011;6014;47.690;9.130;2022-10-28T04:56:54;5.38;;;3.08;;
11907;SDS011;6014;47.690;9.130;2022-10-28T04:59:23;6.18;;;3.40;;
11907;SDS011;6014;47.690;9.130;2022-10-28T05:01:53;7.13;;;3.63;;
11907;SDS011;6014;47.690;9.130;2022-10-28T05:04:24;5.75;;;3.13;;
11907;SDS011;6014;47.690;9.130;2022-10-28T05:06:53;5.65;;;3.28;;
11907;SDS011;6014;47.690;9.130;2022-10-28T05:09:27;4.88;;;3.08;;
11907;SDS011;6014;47.690;9.130;2022-10-28T05:11:56;5.72;;;3.20;;
11907;SDS011;6014;47.690;9.130;2022-10-28T05:17:12;5.35;;;3.50;;
11907;SDS011;6014;47.690;9.130;2022-10-28T05:22:13;6.93;;;3.75;;
11907;SDS011;6014;47.690;9.130;2022-10-28T05:24:42;5.93;;;3.63;;
11907;SDS011;6014;47.690;9.130;2022-10-28T05:27:13;6.20;;;3.80;;
11907;SDS011;6014;47.690;9.130;2022-10-28T05:29:44;7.13;;;4.00;;
11907;SDS011;6014;47.690;9.130;2022-10-28T05:32:14;7.90;;;3.92;;
11907;SDS011;6014;47.690;9.130;2022-10-28T05:34:42;9.43;;;4.30;;
11907;SDS011;6014;47.690;9.130;2022-10-28T05:37:18;9.25;;;4.30;;
11907;SDS011;6014;47.690;9.130;2022-10-28T05:39:47;13.57;;;3.95;;
11907;SDS011;6014;47.690;9.130;2022-10-28T05:42:15;7.25;;;3.53;;
11907;SDS011;6014;47.690;9.130;2022-10-28T05:44:45;9.30;;;3.97;;
11907;SDS011;6014;47.690;9.130;2022-10-28T05:47:17;8.52;;;4.13;;
11907;SDS011;6014;47.690;9.130;2022-10-28T05:49:45;9.23;;;3.83;;
11907;SDS011;6014;47.690;9.130;2022-10-28T05:54:54;11.35;;;4.50;;
11907;SDS011;6014;47.690;9.130;2022-10-28T05:57:22;9.27;;;4.00;;
11907;SDS011;6014;47.690;9.130;2022-10-28T05:59:52;12.93;;;4.75;;
11907;SDS011;6014;47.690;9.130;2022-10-28T06:02:21;20.25;;;5.07;;
11907;SDS011;6014;47.690;9.130;2022-10-28T06:04:49;14.68;;;5.00;;
11907;SDS011;6014;47.690;9.130;2022-10-28T06:07:18;17.83;;;5.10;;
11907;SDS011;6014;47.690;9.130;2022-10-28T06:09:47;15.48;;;4.90;;
11907;SDS011;6014;47.690;9.130;2022-10-28T06:12:16;16.63;;;4.90;;
11907;SDS011;6014;47.690;9.130;2022-10-28T06:14:44;11.45;;;5.30;;
11907;SDS011;6014;47.690;9.130;2022-10-28T06:17:14;14.80;;;5.18;;
11907;SDS011;6014;47.690;9.130;2022-10-28T06:19:42;14.60;;;4.95;;
11907;SDS011;6014;47.690;9.130;2022-10-28T06:24:54;22.88;;;5.07;;
11907;SDS011;6014;47.690;9.130;2022-10-28T06:27:22;17.88;;;5.40;;
11907;SDS011;6014;47.690;9.130;2022-10-28T06:29:51;9.68;;;4.63;;
11907;SDS011;6014;47.690;9.130;2022-10-28T06:32:21;21.25;;;4.85;;
11907;SDS011;6014;47.690;9.130;2022-10-28T06:34:49;34.33;;;5.05;;
11907;SDS011;6014;47.690;9.130;2022-10-28T06:37:17;21.17;;;4.85;;
11907;SDS011;6014;47.690;9.130;2022-10-28T06:39:46;12.25;;;4.63;;
11907;SDS011;6014;47.690;9.130;2022-10-28T06:42:17;14.25;;;5.18;;
11907;SDS011;6014;47.690;9.130;2022-10-28T06:44:46;27.70;;;5.32;;
11907;SDS011;6014;47.690;9.130;2022-10-28T06:47:15;13.43;;;4.50;;
11907;SDS011;6014;47.690;9.130;2022-10-28T06:49:45;25.52;;;5.07;;
11907;SDS011;6014;47.690;9.130;2022-10-28T06:52:14;14.60;;;4.50;;
11907;SDS011;6014;47.690;9.130;2022-10-28T06:54:42;31.73;;;6.07;;
11907;SDS011;6014;47.690;9.130;2022-10-28T06:57:11;14.48;;;5.00;;
11907;SDS011;6014;47.690;9.130;2022-10-28T06:59:39;13.48;;;5.38;;
11907;SDS011;6014;47.690;9.130;2022-10-28T07:02:14;16.17;;;5.95;;
11907;SDS011;6014;47.690;9.130;2022-10-28T07:04:44;11.15;;;5.75;;
11907;SDS011;6014;47.690;9.130;2022-10-28T07:07:14;15.77;;;5.90;;
11907;SDS011;6014;47.690;9.130;2022-10-28T07:09:42;11.95;;;5.07;;
11907;SDS011;6014;47.690;9.130;2022-10-28T07:12:11;17.77;;;5.80;;
11907;SDS011;6014;47.690;9.130;2022-10-28T07:14:40;20.73;;;6.00;;
11907;SDS011;6014;47.690;9.130;2022-10-28T07:17:09;21.10;;;5.97;;
11907;SDS011;6014;47.690;9.130;2022-10-28T07:19:37;30.65;;;5.72;;
11907;SDS011;6014;47.690;9.130;2022-10-28T07:22:07;45.78;;;6.63;;
11907;SDS011;6014;47.690;9.130;2022-10-28T07:24:35;48.00;;;6.03;;
11907;SDS011;6014;47.690;9.130;2022-10-28T07:27:04;29.45;;;6.22;;
11907;SDS011;6014;47.690;9.130;2022-10-28T07:29:32;45.83;;;6.75;;
11907;SDS011;6014;47.690;9.130;2022-10-28T07:34:32;45.92;;;5.93;;
11907;SDS011;6014;47.690;9.130;2022-10-28T07:37:01;27.77;;;5.80;;
11907;SDS011;6014;47.690;9.130;2022-10-28T07:39:31;29.75;;;7.38;;
11907;SDS011;6014;47.690;9.130;2022-10-28T07:41:59;26.13;;;6.28;;
11907;SDS011;6014;47.690;9.130;2022-10-28T07:44:32;24.35;;;5.50;;
11907;SDS011;6014;47.690;9.130;2022-10-28T07:47:00;20.55;;;5.85;;
11907;SDS011;6014;47.690;9.130;2022-10-28T07:49:29;36.90;;;5.93;;
11907;SDS011;6014;47.690;9.130;2022-10-28T07:51:58;28.63;;;6.03;;
11907;SDS011;6014;47.690;9.130;2022-10-28T07:54:26;15.38;;;5.43;;
11907;SDS011;6014;47.690;9.130;2022-10-28T07:56:58;12.75;;;5.43;;
11907;SDS011;6014;47.690;9.130;2022-10-28T07:59:26;11.23;;;5.40;;
11907;SDS011;6014;47.690;9.130;2022-10-28T08:01:55;9.15;;;5.50;;
11907;SDS011;6014;47.690;9.130;2022-10-28T08:04:27;8.25;;;5.40;;
11907;SDS011;6014;47.690;9.130;2022-10-28T08:06:56;8.05;;;5.30;;
11907;SDS011;6014;47.690;9.130;2022-10-28T08:09:25;8.65;;;5.45;;
11907;SDS011;6014;47.690;9.130;2022-10-28T08:11:54;7.70;;;5.05;;
11907;SDS011;6014;47.690;9.130;2022-10-28T08:14:24;7.55;;;5.22;;
11907;SDS011;6014;47.690;9.130;2022-10-28T08:16:53;10.38;;;5.00;;
11907;SDS011;6014;47.690;9.130;2022-10-28T08:19:21;7.47;;;4.47;;
11907;SDS011;6014;47.690;9.130;2022-10-28T08:21:49;7.43;;;4.75;;
11907;SDS011;6014;47.690;9.130;2022-10-28T08:24:18;7.18;;;4.75;;
11907;SDS011;6014;47.690;9.130;2022-10-28T08:29:30;10.45;;;5.47;;
11907;SDS011;6014;47.690;9.130;2022-10-28T08:31:58;8.38;;;5.40;;
11907;SDS011;6014;47.690;9.130;2022-10-28T08:34:27;9.48;;;5.65;;
11907;SDS011;6014;47.690;9.130;2022-10-28T08:37:02;9.30;;;5.80;;
11907;SDS011;6014;47.690;9.130;2022-10-28T08:39:46;9.15;;;5.72;;
11907;SDS011;6014;47.690;9.130;2022-10-28T08:47:49;7.80;;;5.53;;
11907;SDS011;6014;47.690;9.130;2022-10-28T08:50:32;9.98;;;5.85;;
11907;SDS011;6014;47.690;9.130;2022-10-28T08:53:17;12.98;;;9.82;;
11907;SDS011;6014;47.690;9.130;2022-10-28T08:55:50;10.25;;;6.57;;
11907;SDS011;6014;47.690;9.130;2022-10-28T08:58:24;9.32;;;5.40;;
11907;SDS011;6014;47.690;9.130;2022-10-28T09:00:57;12.55;;;5.82;;
11907;SDS011;6014;47.690;9.130;2022-10-28T09:03:26;8.95;;;5.45;;
11907;SDS011;6014;47.690;9.130;2022-10-28T09:06:02;6.97;;;5.07;;
11907;SDS011;6014;47.690;9.130;2022-10-28T09:08:40;11.18;;;5.97;;
11907;SDS011;6014;47.690;9.130;2022-10-28T09:14:07;9.70;;;6.07;;
11907;SDS011;6014;47.690;9.130;2022-10-28T09:16:53;10.55;;;6.05;;
11907;SDS011;6014;47.690;9.130;2022-10-28T09:19:39;9.98;;;5.70;;
11907;SDS011;6014;47.690;9.130;2022-10-28T09:22:19;10.93;;;5.90;;
11907;SDS011;6014;47.690;9.130;2022-10-28T09:25:09;8.40;;;5.53;;
11907;SDS011;6014;47.690;9.130;2022-10-28T09:27:51;7.65;;;5.30;;
11907;SDS011;6014;47.690;9.130;2022-10-28T09:30:48;10.10;;;6.13;;
11907;SDS011;6014;47.690;9.130;2022-10-28T09:36:32;9.45;;;6.28;;
11907;SDS011;6014;47.690;9.130;2022-10-28T09:39:15;13.43;;;6.15;;
11907;SDS011;6014;47.690;9.130;2022-10-28T09:41:53;11.85;;;6.03;;
11907;SDS011;6014;47.690;9.130;2022-10-28T09:47:18;10.30;;;6.30;;
11907;SDS011;6014;47.690;9.130;2022-10-28T09:49:55;10.73;;;6.13;;
11907;SDS011;6014;47.690;9.130;2022-10-28T09:52:29;11.88;;;7.10;;
11907;SDS011;6014;47.690;9.130;2022-10-28T09:55:05;9.88;;;6.15;;
11907;SDS011;6014;47.690;9.130;2022-10-28T09:57:47;15.30;;;6.80;;
11907;SDS011;6014;47.690;9.130;2022-10-28T10:00:16;11.77;;;6.93;;
11907;SDS011;6014;47.690;9.130;2022-10-28T10:02:45;11.20;;;6.63;;
11907;SDS011;6014;47.690;9.130;2022-10-28T10:08:08;12.65;;;7.65;;
11907;SDS011;6014;47.690;9.130;2022-10-28T10:10:46;11.85;;;7.35;;
11907;SDS011;6014;47.690;9.130;2022-10-28T10:13:19;13.48;;;7.32;;
11907;SDS011;6014;47.690;9.130;2022-10-28T10:15:54;10.35;;;6.57;;
11907;SDS011;6014;47.690;9.130;2022-10-28T10:18:28;12.55;;;7.35;;
11907;SDS011;6014;47.690;9.130;2022-10-28T10:21:01;12.00;;;7.28;;
11907;SDS011;6014;47.690;9.130;2022-10-28T10:23:35;11.15;;;7.10;;
11907;SDS011;6014;47.690;9.130;2022-10-28T10:26:05;11.25;;;7.07;;
11907;SDS011;6014;47.690;9.130;2022-10-28T10:28:38;10.93;;;6.70;;
11907;SDS011;6014;47.690;9.130;2022-10-28T10:31:15;12.73;;;7.18;;
11907;SDS011;6014;47.690;9.130;2022-10-28T10:33:47;11.55;;;7.38;;
11907;SDS011;6014;47.690;9.130;2022-10-28T10:38:57;10.98;;;6.60;;
11907;SDS011;6014;47.690;9.130;2022-10-28T10:41:33;14.70;;;7.22;;
11907;SDS011;6014;47.690;9.130;2022-10-28T10:44:21;15.88;;;8.70;;
11907;SDS011;6014;47.690;9.130;2022-10-28T10:49:48;37.55;;;24.88;;
11907;SDS011;6014;47.690;9.130;2022-10-28T10:52:20;13.18;;;7.85;;
11907;SDS011;6014;47.690;9.130;2022-10-28T10:54:58;11.13;;;6.63;;
11907;SDS011;6014;47.690;9.130;2022-10-28T11:00:19;27.20;;;18.65;;
11907;SDS011;6014;47.690;9.130;2022-10-28T11:02:48;16.45;;;8.95;;
11907;SDS011;6014;47.690;9.130;2022-10-28T11:05:21;17.50;;;10.18;;
11907;SDS011;6014;47.690;9.130;2022-10-28T11:11:01;11.57;;;7.38;;
11907;SDS011;6014;47.690;9.130;2022-10-28T11:13:41;10.60;;;6.57;;
11907;SDS011;6014;47.690;9.130;2022-10-28T11:16:18;12.82;;;7.15;;
11907;SDS011;6014;47.690;9.130;2022-10-28T11:18:49;10.63;;;6.75;;
11907;SDS011;6014;47.690;9.130;2022-10-28T11:21:22;14.38;;;6.80;;
11907;SDS011;6014;47.690;9.130;2022-10-28T11:24:16;14.50;;;6.65;;
11907;SDS011;6014;47.690;9.130;2022-10-28T11:27:00;10.07;;;6.15;;
11907;SDS011;6014;47.690;9.130;2022-10-28T11:29:43;13.57;;;5.97;;
11907;SDS011;6014;47.690;9.130;2022-10-28T11:32:18;10.90;;;6.38;;
11907;SDS011;6014;47.690;9.130;2022-10-28T11:38:07;11.57;;;5.55;;
11907;SDS011;6014;47.690;9.130;2022-10-28T11:41:08;13.75;;;6.68;;
11907;SDS011;6014;47.690;9.130;2022-10-28T11:43:49;10.63;;;4.93;;
11907;SDS011;6014;47.690;9.130;2022-10-28T11:46:29;9.73;;;5.18;;
11907;SDS011;6014;47.690;9.130;2022-10-28T11:52:09;10.23;;;5.25;;
11907;SDS011;6014;47.690;9.130;2022-10-28T11:54:54;9.30;;;4.50;;
11907;SDS011;6014;47.690;9.130;2022-10-28T11:57:39;10.85;;;4.72;;
11907;SDS011;6014;47.690;9.130;2022-10-28T12:03:38;8.40;;;4.85;;
11907;SDS011;6014;47.690;9.130;2022-10-28T12:06:32;9.80;;;4.43;;
11907;SDS011;6014;47.690;9.130;2022-10-28T12:09:19;8.70;;;4.20;;
11907;SDS011;6014;47.690;9.130;2022-10-28T12:12:02;14.77;;;4.97;;
11907;SDS011;6014;47.690;9.130;2022-10-28T12:14:47;8.15;;;4.72;;
11907;SDS011;6014;47.690;9.130;2022-10-28T12:17:27;8.95;;;4.75;;
11907;SDS011;6014;47.690;9.130;2022-10-28T12:20:06;11.80;;;4.30;;
11907;SDS011;6014;47.690;9.130;2022-10-28T12:22:47;8.40;;;4.43;;
11907;SDS011;6014;47.690;9.130;2022-10-28T12:25:19;11.55;;;4.32;;
11907;SDS011;6014;47.690;9.130;2022-10-28T12:27:51;10.65;;;4.35;;
11907;SDS011;6014;47.690;9.130;2022-10-28T12:30:26;11.15;;;5.20;;
11907;SDS011;6014;47.690;9.130;2022-10-28T12:32:58;9.73;;;5.53;;
11907;SDS011;6014;47.690;9.130;2022-10-28T12:35:31;13.82;;;5.78;;
11907;SDS011;6014;47.690;9.130;2022-10-28T12:38:05;12.75;;;5.60;;
11907;SDS011;6014;47.690;9.130;2022-10-28T12:40:41;12.45;;;6.03;;
11907;SDS011;6014;47.690;9.130;2022-10-28T12:43:18;10.25;;;6.10;;
11907;SDS011;6014;47.690;9.130;2022-10-28T12:45:52;11.50;;;5.68;;
11907;SDS011;6014;47.690;9.130;2022-10-28T12:48:24;12.20;;;5.40;;
11907;SDS011;6014;47.690;9.130;2022-10-28T12:51:00;10.80;;;5.60;;
11907;SDS011;6014;47.690;9.130;2022-10-28T12:53:35;10.38;;;5.15;;
11907;SDS011;6014;47.690;9.130;2022-10-28T12:56:12;11.35;;;5.50;;
11907;SDS011;6014;47.690;9.130;2022-10-28T12:58:49;10.85;;;5.65;;
11907;SDS011;6014;47.690;9.130;2022-10-28T13:01:27;10.02;;;5.38;;
11907;SDS011;6014;47.690;9.130;2022-10-28T13:03:57;11.05;;;5.20;;
11907;SDS011;6014;47.690;9.130;2022-10-28T13:06:36;14.75;;;5.10;;
11907;SDS011;6014;47.690;9.130;2022-10-28T13:09:34;11.60;;;5.70;;
11907;SDS011;6014;47.690;9.130;2022-10-28T13:12:26;17.25;;;6.13;;
11907;SDS011;6014;47.690;9.130;2022-10-28T13:15:23;11.20;;;5.78;;
11907;SDS011;6014;47.690;9.130;2022-10-28T13:18:28;12.45;;;6.05;;
11907;SDS011;6014;47.690;9.130;2022-10-28T13:21:45;11.73;;;6.18;;
11907;SDS011;6014;47.690;9.130;2022-10-28T13:24:39;12.07;;;5.22;;
11907;SDS011;6014;47.690;9.130;2022-10-28T13:27:16;11.55;;;5.63;;
11907;SDS011;6014;47.690;9.130;2022-10-28T13:29:48;12.00;;;6.13;;
11907;SDS011;6014;47.690;9.130;2022-10-28T13:35:11;12.20;;;5.70;;
11907;SDS011;6014;47.690;9.130;2022-10-28T13:37:48;9.20;;;5.65;;
11907;SDS011;6014;47.690;9.130;2022-10-28T13:40:20;11.73;;;5.70;;
11907;SDS011;6014;47.690;9.130;2022-10-28T14:02:28;13.13;;;6.70;;
11907;SDS011;6014;47.690;9.130;2022-10-28T14:05:10;9.23;;;5.80;;
11907;SDS011;6014;47.690;9.130;2022-10-28T14:07:50;12.27;;;6.05;;
11907;SDS011;6014;47.690;9.130;2022-10-28T14:10:29;14.43;;;6.20;;
11907;SDS011;6014;47.690;9.130;2022-10-28T14:13:02;12.60;;;6.63;;
11907;SDS011;6014;47.690;9.130;2022-10-28T14:15:38;11.07;;;5.70;;
11907;SDS011;6014;47.690;9.130;2022-10-28T14:18:22;11.23;;;5.78;;
11907;SDS011;6014;47.690;9.130;2022-10-28T14:21:11;12.23;;;6.25;;
11907;SDS011;6014;47.690;9.130;2022-10-28T14:30:23;9.25;;;5.47;;
11907;SDS011;6014;47.690;9.130;2022-10-28T14:39:14;11.85;;;5.53;;
11907;SDS011;6014;47.690;9.130;2022-10-28T14:42:09;11.63;;;5.20;;
11907;SDS011;6014;47.690;9.130;2022-10-28T14:47:56;12.40;;;5.43;;
11907;SDS011;6014;47.690;9.130;2022-10-28T14:50:56;11.98;;;5.45;;
11907;SDS011;6014;47.690;9.130;2022-10-28T14:53:44;10.13;;;4.85;;
11907;SDS011;6014;47.690;9.130;2022-10-28T14:58:53;11.18;;;5.03;;
11907;SDS011;6014;47.690;9.130;2022-10-28T15:01:33;11.23;;;4.80;;
11907;SDS011;6014;47.690;9.130;2022-10-28T15:04:19;12.10;;;4.85;;
11907;SDS011;6014;47.690;9.130;2022-10-28T15:06:49;9.70;;;5.50;;
11907;SDS011;6014;47.690;9.130;2022-10-28T15:09:21;12.70;;;5.20;;
11907;SDS011;6014;47.690;9.130;2022-10-28T15:11:57;12.88;;;5.25;;
11907;SDS011;6014;47.690;9.130;2022-10-28T15:14:29;9.75;;;4.47;;
11907;SDS011;6014;47.690;9.130;2022-10-28T15:17:03;10.90;;;4.70;;
11907;SDS011;6014;47.690;9.130;2022-10-28T15:19:43;11.35;;;4.90;;
11907;SDS011;6014;47.690;9.130;2022-10-28T15:22:26;10.50;;;5.30;;
11907;SDS011;6014;47.690;9.130;2022-10-28T15:24:57;8.18;;;4.45;;
11907;SDS011;6014;47.690;9.130;2022-10-28T15:27:29;9.48;;;4.53;;
11907;SDS011;6014;47.690;9.130;2022-10-28T15:30:00;12.10;;;4.50;;
11907;SDS011;6014;47.690;9.130;2022-10-28T15:32:30;11.40;;;4.68;;
11907;SDS011;6014;47.690;9.130;2022-10-28T15:44:27;12.35;;;4.55;;
11907;SDS011;6014;47.690;9.130;2022-10-28T15:47:03;12.13;;;5.20;;
11907;SDS011;6014;47.690;9.130;2022-10-28T15:49:45;10.00;;;4.90;;
11907;SDS011;6014;47.690;9.130;2022-10-28T15:58:30;14.88;;;4.72;;
11907;SDS011;6014;47.690;9.130;2022-10-28T16:01:08;9.35;;;4.50;;
11907;SDS011;6014;47.690;9.130;2022-10-28T16:07:09;10.60;;;4.45;;
11907;SDS011;6014;47.690;9.130;2022-10-28T16:12:40;10.50;;;4.95;;
11907;SDS011;6014;47.690;9.130;2022-10-28T16:15:12;8.27;;;3.72;;
11907;SDS011;6014;47.690;9.130;2022-10-28T16:17:42;17.90;;;4.57;;
11907;SDS011;6014;47.690;9.130;2022-10-28T16:20:11;12.75;;;4.45;;
11907;SDS011;6014;47.690;9.130;2022-10-28T16:22:44;11.05;;;4.40;;
11907;SDS011;6014;47.690;9.130;2022-10-28T16:25:14;11.88;;;4.10;;
11907;SDS011;6014;47.690;9.130;2022-10-28T16:27:45;8.35;;;4.45;;
11907;SDS011;6014;47.690;9.130;2022-10-28T16:30:16;9.15;;;4.25;;
11907;SDS011;6014;47.690;9.130;2022-10-28T16:32:46;9.07;;;4.32;;
11907;SDS011;6014;47.690;9.130;2022-10-28T16:38:22;13.15;;;4.45;;
11907;SDS011;6014;47.690;9.130;2022-10-28T16:40:51;10.93;;;4.43;;
11907;SDS011;6014;47.690;9.130;2022-10-28T16:43:27;10.10;;;4.65;;
11907;SDS011;6014;47.690;9.130;2022-10-28T16:45:57;11.18;;;4.53;;
11907;SDS011;6014;47.690;9.130;2022-10-28T16:48:28;13.30;;;4.25;;
11907;SDS011;6014;47.690;9.130;2022-10-28T16:50:57;14.57;;;5.28;;
11907;SDS011;6014;47.690;9.130;2022-10-28T16:53:34;8.23;;;4.25;;
11907;SDS011;6014;47.690;9.130;2022-10-28T16:56:04;10.10;;;4.30;;
11907;SDS011;6014;47.690;9.130;2022-10-28T16:58:49;6.97;;;4.07;;
11907;SDS011;6014;47.690;9.130;2022-10-28T17:01:18;11.30;;;4.15;;
11907;SDS011;6014;47.690;9.130;2022-10-28T17:03:50;9.55;;;4.38;;
11907;SDS011;6014;47.690;9.130;2022-10-28T17:06:18;13.27;;;4.65;;
11907;SDS011;6014;47.690;9.130;2022-10-28T17:08:47;9.55;;;4.53;;
11907;SDS011;6014;47.690;9.130;2022-10-28T17:11:28;9.30;;;4.07;;
11907;SDS011;6014;47.690;9.130;2022-10-28T17:14:01;11.10;;;4.00;;
11907;SDS011;6014;47.690;9.130;2022-10-28T17:16:30;9.73;;;4.90;;
11907;SDS011;6014;47.690;9.130;2022-10-28T17:18:59;8.32;;;3.97;;
11907;SDS011;6014;47.690;9.130;2022-10-28T17:21:27;8.43;;;4.00;;
11907;SDS011;6014;47.690;9.130;2022-10-28T17:23:56;8.77;;;4.05;;
11907;SDS011;6014;47.690;9.130;2022-10-28T17:26:24;11.32;;;4.63;;
11907;SDS011;6014;47.690;9.130;2022-10-28T17:28:52;11.23;;;4.30;;
11907;SDS011;6014;47.690;9.130;2022-10-28T17:31:20;7.75;;;4.38;;
11907;SDS011;6014;47.690;9.130;2022-10-28T17:33:54;10.10;;;4.55;;
11907;SDS011;6014;47.690;9.130;2022-10-28T17:36:23;9.68;;;4.47;;
11907;SDS011;6014;47.690;9.130;2022-10-28T17:38:51;9.63;;;4.47;;
11907;SDS011;6014;47.690;9.130;2022-10-28T17:41:21;7.47;;;4.18;;
11907;SDS011;6014;47.690;9.130;2022-10-28T17:43:50;11.07;;;4.57;;
11907;SDS011;6014;47.690;9.130;2022-10-28T17:46:19;8.02;;;3.85;;
11907;SDS011;6014;47.690;9.130;2022-10-28T17:48:48;8.15;;;4.47;;
11907;SDS011;6014;47.690;9.130;2022-10-28T17:51:16;12.73;;;4.53;;
11907;SDS011;6014;47.690;9.130;2022-10-28T17:53:47;9.88;;;4.65;;